Upper Matecumbe Key, Florida
Current Conditions -  °F | °C
As of 9:53 PM on Friday 26 Dec 2014 (Local Time) from KMTH Reporting Station
Clear Clear  
Wind Chill: 74°   Ceiling: Unl
Heat Index: 74°   Visibility: 10mi
Dew Point: 73°   Wind: 8mph
Humidity: 97%   Direction: 60°ENE
Pressure: 30.17"   Gusts: NA
Location:  24.8649°N, 80.7192°W
Report Text: KMTH 270253Z AUTO 06007KT 10SM CLR 23/23 A3017 RMK AO2 SLP214 T02330228 51008
Loading
Personal Weather Stations






























Interactive Weather Map New forecast layout! Learn more

10-Day Weather Forecast

Advertisements
Track Severe Weather on mobile